Terminal Aerodrome Forecast
Issued by NWS St Louis, MO

Home | Current Version | Previous Version | Text Only | Print | Product List | Glossary On
Versions: 1 2 3 4 5 6 7 8 9 10 11 12 13 14 15 16 17 18 19 20 21 22 23
274
FTUS43 KLSX 262303 AAA
TAFSTL
TAF AMD
KSTL 262303Z 2623/2724 18005KT 6SM -TSRA BKN035CB
     FM270200 04005KT P6SM SCT040
     FM271000 00000KT 5SM BR SKC
     FM271400 05004KT P6SM SCT030=

USA.gov is the U.S. government's official web portal to all federal, state and local government web resources and services.